Terminal Aerodrome Forecast
Issued by NWS

Home | Current Version | Previous Version | Text Only | Print | Product List | Glossary On
Versions: 1 2 3 4 5 6 7 8 9 10 11 12 13 14 15 16 17 18
000
FTUS42 KTBW 302300
TAFPIE
TAF
KPIE 302338Z 3100/3124 VRB06KT P6SM VCTS SCT040CB BKN100 BKN250
      WS005/09010KT
      TEMPO 3100/3101 VRB15G25KT 4SM TSRA SCT005 BKN025CB
     FM310200 11004KT P6SM FEW025 BKN250
     FM311400 12006KT P6SM SCT025 BKN250
     FM311800 VRB06KT P6SM VCTS SCT025CB BKN050=

USA.gov is the U.S. government's official web portal to all federal, state and local government web resources and services.